createdAt,value
2018-09-15T00:00:16.813Z,14.20
2018-09-15T00:04:25.086Z,14.20
2018-09-15T00:08:33.471Z,14.10
2018-09-15T00:12:41.958Z,14.20
2018-09-15T00:16:50.319Z,14.20
2018-09-15T00:20:58.662Z,14.20
2018-09-15T00:25:07.188Z,14.10
2018-09-15T00:29:15.520Z,14.10
2018-09-15T00:33:23.866Z,14.20
2018-09-15T00:37:32.202Z,14.10
2018-09-15T00:41:40.754Z,14.10
2018-09-15T00:45:52.611Z,14.10
2018-09-15T00:50:01.681Z,14.00
2018-09-15T00:54:09.996Z,14.00
2018-09-15T00:58:19.045Z,14.00
2018-09-15T01:02:27.404Z,14.00
2018-09-15T01:06:35.716Z,14.00
2018-09-15T01:10:44.036Z,14.00
2018-09-15T01:14:52.450Z,14.10
2018-09-15T01:19:00.793Z,14.10
2018-09-15T01:23:09.216Z,14.20
2018-09-15T01:27:17.619Z,14.20
2018-09-15T01:31:26.014Z,14.30
2018-09-15T01:35:34.379Z,14.40
2018-09-15T01:39:42.734Z,14.40
2018-09-15T01:43:51.054Z,14.30
2018-09-15T01:47:59.351Z,14.30
2018-09-15T01:52:07.653Z,14.30
2018-09-15T01:56:15.994Z,14.30
2018-09-15T02:00:24.452Z,14.30
2018-09-15T02:04:32.877Z,14.20
2018-09-15T02:08:41.150Z,14.20
2018-09-15T02:12:49.443Z,14.20
2018-09-15T02:16:57.804Z,14.20
2018-09-15T02:21:06.213Z,14.20
2018-09-15T02:25:14.780Z,14.10
2018-09-15T02:33:31.197Z,14.20
2018-09-15T02:37:39.539Z,14.20
2018-09-15T02:41:47.814Z,14.10
2018-09-15T02:45:56.190Z,14.00
2018-09-15T02:50:05.119Z,14.00
2018-09-15T02:54:13.422Z,13.90
2018-09-15T02:58:21.764Z,14.00
2018-09-15T03:02:30.045Z,13.90
2018-09-15T03:06:38.559Z,13.90
2018-09-15T03:10:46.902Z,13.90
2018-09-15T03:14:55.311Z,13.70
2018-09-15T03:19:03.673Z,13.80
2018-09-15T03:23:11.982Z,13.80
2018-09-15T03:27:20.302Z,13.70
2018-09-15T03:31:28.626Z,13.70
2018-09-15T03:35:36.908Z,13.60
2018-09-15T03:39:45.273Z,13.60
2018-09-15T03:43:53.612Z,13.60
2018-09-15T03:48:01.938Z,13.60
2018-09-15T03:52:10.238Z,13.50
2018-09-15T03:56:18.593Z,13.50
2018-09-15T04:00:26.947Z,13.40
2018-09-15T04:04:35.305Z,13.30
2018-09-15T04:08:43.624Z,13.40
2018-09-15T04:12:51.934Z,13.30
2018-09-15T04:17:00.319Z,13.30
2018-09-15T04:21:08.673Z,13.30
2018-09-15T04:25:17.105Z,13.30
2018-09-15T04:29:25.456Z,13.30
2018-09-15T04:33:33.876Z,13.20
2018-09-15T04:37:42.414Z,13.10
2018-09-15T04:41:50.807Z,13.10
2018-09-15T04:45:59.101Z,13.10
2018-09-15T04:50:07.460Z,13.10
2018-09-15T04:54:15.761Z,13.10
2018-09-15T04:58:24.112Z,13.20
2018-09-15T05:02:32.499Z,13.10
2018-09-15T05:06:40.987Z,13.20
2018-09-15T05:10:49.333Z,13.20
2018-09-15T05:14:57.682Z,13.20
2018-09-15T05:19:06.077Z,13.20
2018-09-15T05:23:14.412Z,13.10
2018-09-15T05:27:22.759Z,13.20
2018-09-15T05:31:31.191Z,13.20
2018-09-15T05:35:39.569Z,13.20
2018-09-15T05:39:47.958Z,13.00
2018-09-15T05:43:56.327Z,13.00
2018-09-15T05:48:04.730Z,13.10
2018-09-15T05:52:13.098Z,13.20
2018-09-15T05:56:21.471Z,13.10
2018-09-15T06:00:29.847Z,13.10
2018-09-15T06:04:38.202Z,13.10
2018-09-15T06:08:46.597Z,13.10
2018-09-15T06:12:54.978Z,13.30
2018-09-15T06:17:03.365Z,13.20
2018-09-15T06:21:11.769Z,13.30
2018-09-15T06:25:20.184Z,13.40
2018-09-15T06:29:28.583Z,13.40
2018-09-15T06:33:36.941Z,13.50
2018-09-15T06:37:45.254Z,13.60
2018-09-15T06:41:53.601Z,13.80
2018-09-15T06:46:02.138Z,13.90
2018-09-15T06:50:10.469Z,14.00
2018-09-15T06:54:18.924Z,14.00
2018-09-15T06:58:27.309Z,14.00
2018-09-15T07:02:35.630Z,14.00
2018-09-15T07:06:43.974Z,14.00
2018-09-15T07:10:52.359Z,14.00
2018-09-15T07:15:00.714Z,14.10
2018-09-15T07:19:09.182Z,14.10
2018-09-15T07:23:17.479Z,14.20
2018-09-15T07:27:25.837Z,14.40
2018-09-15T07:31:34.289Z,14.60
2018-09-15T07:35:42.610Z,14.80
2018-09-15T07:39:51.002Z,14.90
2018-09-15T07:43:59.377Z,15.00
2018-09-15T07:48:07.846Z,15.10
2018-09-15T07:52:16.170Z,15.20
2018-09-15T07:56:24.512Z,15.10
2018-09-15T08:00:33.088Z,15.30
2018-09-15T08:04:41.414Z,15.50
2018-09-15T08:08:49.786Z,15.50
2018-09-15T08:12:58.092Z,15.60
2018-09-15T08:17:06.625Z,15.60
2018-09-15T08:21:14.914Z,15.80
2018-09-15T08:25:23.278Z,15.80
2018-09-15T08:29:31.609Z,15.90
2018-09-15T08:33:39.999Z,16.00
2018-09-15T08:37:48.338Z,16.20
2018-09-15T08:41:56.725Z,16.30
2018-09-15T08:46:05.063Z,16.20
2018-09-15T08:50:13.408Z,16.30
2018-09-15T08:54:21.764Z,16.50
2018-09-15T08:58:30.121Z,16.60
2018-09-15T09:02:38.454Z,16.70
2018-09-15T09:06:46.842Z,16.70
2018-09-15T09:10:55.138Z,16.80
2018-09-15T09:15:03.487Z,17.00
2018-09-15T09:19:11.821Z,17.20
2018-09-15T09:23:20.215Z,17.40
2018-09-15T09:27:53.851Z,17.50
2018-09-15T09:32:21.672Z,17.40
2018-09-15T09:36:29.989Z,17.40
2018-09-15T09:40:38.322Z,17.60
2018-09-15T09:44:46.653Z,17.80
2018-09-15T09:48:54.901Z,17.90
2018-09-15T09:53:03.198Z,18.40
2018-09-15T09:57:11.512Z,18.40
2018-09-15T10:01:29.457Z,18.40
2018-09-15T10:05:37.753Z,18.50
2018-09-15T10:09:46.066Z,18.80
2018-09-15T10:13:54.376Z,19.00
2018-09-15T10:18:02.700Z,19.40
2018-09-15T10:22:11.062Z,19.40
2018-09-15T10:26:19.387Z,19.40
2018-09-15T10:30:27.781Z,19.10
2018-09-15T10:34:36.170Z,18.90
2018-09-15T10:38:44.461Z,18.80
2018-09-15T10:42:52.737Z,18.70
2018-09-15T10:47:01.125Z,18.60
2018-09-15T10:51:09.443Z,18.50
2018-09-15T10:55:17.715Z,18.50
2018-09-15T10:59:26.075Z,18.80
2018-09-15T11:03:34.416Z,19.00
2018-09-15T11:07:42.742Z,19.10
2018-09-15T11:11:51.032Z,19.10
2018-09-15T11:15:59.310Z,19.00
2018-09-15T11:20:07.602Z,19.20
2018-09-15T11:24:15.920Z,19.50
2018-09-15T11:28:24.256Z,19.30
2018-09-15T11:32:32.464Z,19.30
2018-09-15T11:40:48.963Z,19.00
2018-09-15T11:44:57.223Z,18.80
2018-09-15T11:49:05.473Z,18.80
2018-09-15T11:53:13.786Z,18.70
2018-09-15T11:57:22.082Z,18.60
2018-09-15T12:01:30.417Z,18.40
2018-09-15T12:05:38.733Z,18.20
2018-09-15T12:09:47.178Z,18.20
2018-09-15T12:13:55.520Z,18.10
2018-09-15T12:18:03.864Z,18.10
2018-09-15T12:22:12.215Z,18.00
2018-09-15T12:26:20.527Z,18.20
2018-09-15T12:30:28.825Z,18.60
2018-09-15T12:34:39.497Z,19.10
2018-09-15T12:38:47.844Z,19.30
2018-09-15T12:42:56.118Z,19.30
2018-09-15T12:47:04.370Z,19.20
2018-09-15T12:51:14.779Z,19.10
2018-09-15T12:55:24.260Z,19.10
2018-09-15T12:59:32.527Z,18.90
2018-09-15T13:03:40.796Z,18.80
2018-09-15T13:07:49.077Z,18.80
2018-09-15T13:11:57.360Z,18.60
2018-09-15T13:16:05.660Z,18.60
2018-09-15T13:20:13.989Z,18.60
2018-09-15T13:24:22.293Z,18.60
2018-09-15T13:28:30.629Z,18.60
2018-09-15T13:32:39.043Z,18.60
2018-09-15T13:36:47.341Z,18.80
2018-09-15T13:40:55.661Z,18.90
2018-09-15T13:45:03.939Z,19.20
2018-09-15T13:49:12.283Z,19.50
2018-09-15T13:53:20.601Z,19.70
2018-09-15T13:57:28.879Z,19.80
2018-09-15T14:01:37.219Z,19.70
2018-09-15T14:05:45.477Z,19.50
2018-09-15T14:09:53.788Z,19.30
2018-09-15T14:14:02.145Z,19.20
2018-09-15T14:18:10.610Z,19.20
2018-09-15T14:22:18.914Z,19.30
2018-09-15T14:26:27.178Z,19.30
2018-09-15T14:30:35.419Z,19.30
2018-09-15T14:34:44.174Z,19.30
2018-09-15T14:38:52.495Z,19.50
2018-09-15T14:43:00.752Z,19.40
2018-09-15T14:47:09.174Z,19.50
2018-09-15T14:51:17.487Z,19.20
2018-09-15T14:55:25.755Z,19.10
2018-09-15T14:59:34.037Z,19.20
2018-09-15T15:03:42.314Z,19.20
2018-09-15T15:07:51.169Z,19.20
2018-09-15T15:11:59.446Z,19.20
2018-09-15T15:16:07.778Z,19.30
2018-09-15T15:20:16.100Z,19.70
2018-09-15T15:24:24.369Z,19.70
2018-09-15T15:28:32.640Z,19.70
2018-09-15T15:32:40.968Z,19.50
2018-09-15T15:36:49.283Z,19.40
2018-09-15T15:40:57.547Z,19.40
2018-09-15T15:45:05.974Z,19.40
2018-09-15T15:49:14.976Z,19.60
2018-09-15T15:53:23.316Z,19.80
2018-09-15T15:57:31.573Z,20.00
2018-09-15T16:01:39.939Z,19.90
2018-09-15T16:05:48.158Z,19.70
2018-09-15T16:09:56.441Z,19.60
2018-09-15T16:14:04.728Z,19.50
2018-09-15T16:18:13.000Z,19.40
2018-09-15T16:22:21.299Z,19.30
2018-09-15T16:26:29.565Z,19.20
2018-09-15T16:30:37.897Z,19.40
2018-09-15T16:34:46.135Z,19.40
2018-09-15T16:38:54.507Z,19.40
2018-09-15T16:43:02.837Z,19.30
2018-09-15T16:47:11.126Z,19.20
2018-09-15T16:51:19.384Z,19.10
2018-09-15T16:55:27.617Z,19.10
2018-09-15T16:59:35.881Z,19.00
2018-09-15T17:03:44.160Z,19.10
2018-09-15T17:07:52.432Z,18.80
2018-09-15T17:12:00.673Z,18.60
2018-09-15T17:16:08.992Z,18.60
2018-09-15T17:20:17.386Z,18.40
2018-09-15T17:24:25.687Z,18.40
2018-09-15T17:28:33.990Z,18.20
2018-09-15T17:32:42.352Z,18.10
2018-09-15T17:36:50.673Z,18.10
2018-09-15T17:40:58.996Z,18.00
2018-09-15T17:45:07.312Z,18.00
2018-09-15T17:49:16.649Z,17.80
2018-09-15T17:53:24.938Z,17.70
2018-09-15T17:57:33.233Z,17.60
2018-09-15T18:01:41.494Z,17.50
2018-09-15T18:05:49.848Z,17.40
2018-09-15T18:09:58.231Z,17.40
2018-09-15T18:14:06.550Z,17.20
2018-09-15T18:18:14.857Z,17.10
2018-09-15T18:22:23.124Z,17.00
2018-09-15T18:26:31.431Z,17.00
2018-09-15T18:30:39.697Z,16.90
2018-09-15T18:34:47.978Z,16.80
2018-09-15T18:38:56.288Z,16.70
2018-09-15T18:43:04.658Z,16.60
2018-09-15T18:47:12.857Z,16.50
2018-09-15T18:51:21.135Z,16.40
2018-09-15T18:55:29.479Z,16.30
2018-09-15T18:59:38.184Z,16.30
2018-09-15T19:03:46.512Z,16.30
2018-09-15T19:07:54.812Z,16.20
2018-09-15T19:12:03.150Z,16.10
2018-09-15T19:16:11.686Z,16.10
2018-09-15T19:20:20.010Z,16.10
2018-09-15T19:24:29.353Z,16.00
2018-09-15T19:28:37.666Z,15.90
2018-09-15T19:32:46.053Z,15.80
2018-09-15T19:36:54.329Z,15.80
2018-09-15T19:41:02.668Z,15.70
2018-09-15T19:45:10.993Z,15.70
2018-09-15T19:49:19.244Z,15.70
2018-09-15T19:53:27.607Z,15.70
2018-09-15T19:57:36.011Z,15.60
2018-09-15T20:01:44.364Z,15.70
2018-09-15T20:05:52.632Z,15.50
2018-09-15T20:10:00.907Z,15.40
2018-09-15T20:14:09.663Z,15.40
2018-09-15T20:18:16.936Z,15.40
2018-09-15T20:22:25.223Z,15.40
2018-09-15T20:26:33.502Z,15.40
2018-09-15T20:30:41.831Z,15.40
2018-09-15T20:34:50.146Z,15.30
2018-09-15T20:38:58.466Z,15.30
2018-09-15T20:43:06.801Z,15.30
2018-09-15T20:47:15.753Z,15.20
2018-09-15T20:51:24.109Z,15.20
2018-09-15T20:55:32.402Z,15.10
2018-09-15T20:59:40.746Z,15.00
2018-09-15T21:03:49.090Z,15.00
2018-09-15T21:07:57.404Z,14.90
2018-09-15T21:12:05.760Z,14.90
2018-09-15T21:16:14.151Z,14.80
2018-09-15T21:20:22.525Z,14.70
2018-09-15T21:24:30.860Z,14.70
2018-09-15T21:28:39.215Z,14.70
2018-09-15T21:32:47.546Z,14.70
2018-09-15T21:36:55.861Z,14.60
2018-09-15T21:41:04.168Z,14.50
2018-09-15T21:45:12.671Z,14.50
2018-09-15T21:49:21.075Z,14.60
2018-09-15T21:53:30.042Z,14.50
2018-09-15T21:57:38.349Z,14.50
2018-09-15T22:01:46.836Z,14.40
2018-09-15T22:05:55.212Z,14.30
2018-09-15T22:10:03.550Z,14.30
2018-09-15T22:14:11.881Z,14.30
2018-09-15T22:18:20.241Z,14.20
2018-09-15T22:22:28.651Z,14.10
2018-09-15T22:26:37.003Z,14.10
2018-09-15T22:30:45.312Z,14.20
2018-09-15T22:34:53.654Z,14.10
2018-09-15T22:39:01.973Z,14.10
2018-09-15T22:43:10.470Z,14.00
2018-09-15T22:47:18.813Z,13.90
2018-09-15T22:51:27.172Z,14.00
2018-09-15T22:55:35.466Z,13.90
2018-09-15T22:59:43.801Z,13.90
2018-09-15T23:03:56.339Z,13.90
2018-09-15T23:08:04.762Z,13.80
2018-09-15T23:12:13.116Z,13.80
2018-09-15T23:16:21.608Z,13.90
2018-09-15T23:20:29.932Z,13.90
2018-09-15T23:24:38.276Z,13.80
2018-09-15T23:28:46.573Z,13.80
2018-09-15T23:32:54.919Z,13.80
2018-09-15T23:37:03.313Z,13.70
2018-09-15T23:41:11.606Z,13.70
2018-09-15T23:45:19.885Z,13.70
2018-09-15T23:49:28.201Z,13.60
2018-09-15T23:53:36.483Z,13.50
2018-09-15T23:57:44.802Z,13.60
